N1WA KCID-KGFK
Flight info
| Callsign | N1WA |
|---|---|
| Flight time | 1h 53m |
| Altitude | 30000 |
| Route | MCW J90 RWF FAR |
| Aircraft | SF50/L-SDGRWY/L |
Departure
| Time | 2026-05-06 02:16 |
|---|---|
| Airport | The Eastern Iowa Airport (KCID) |
Arrival
| Time | 2026-05-06 04:09 |
|---|---|
| Airport | Grand Forks International Airport (KGFK) |
| Time | Latitude | Longitude | Altitude | Speed | Heading |
|---|---|---|---|---|---|
| 2026-05-06 01:59 | 41.88783 | -91.70621 | 861 ft | 0 kts | 224° |
| 2026-05-06 02:08 | 41.88772 | -91.70639 | 864 ft | 3 kts | 217° |
| 2026-05-06 02:08 | 41.88737 | -91.70654 | 860 ft | 9 kts | 191° |
| 2026-05-06 02:09 | 41.88681 | -91.70703 | 864 ft | 11 kts | 227° |
| 2026-05-06 02:09 | 41.88620 | -91.70672 | 866 ft | 10 kts | 139° |
| 2026-05-06 02:09 | 41.88578 | -91.70616 | 866 ft | 6 kts | 118° |
| 2026-05-06 02:09 | 41.88574 | -91.70556 | 866 ft | 7 kts | 91° |
| 2026-05-06 02:10 | 41.88573 | -91.70488 | 867 ft | 8 kts | 90° |
| 2026-05-06 02:10 | 41.88573 | -91.70414 | 867 ft | 8 kts | 90° |
| 2026-05-06 02:10 | 41.88573 | -91.70334 | 867 ft | 9 kts | 93° |
| 2026-05-06 02:10 | 41.88572 | -91.70251 | 867 ft | 9 kts | 90° |
| 2026-05-06 02:11 | 41.88570 | -91.70165 | 867 ft | 9 kts | 92° |
| 2026-05-06 02:11 | 41.88567 | -91.70076 | 867 ft | 10 kts | 92° |
| 2026-05-06 02:11 | 41.88568 | -91.69971 | 867 ft | 14 kts | 88° |
| 2026-05-06 02:11 | 41.88566 | -91.69828 | 867 ft | 14 kts | 92° |
| 2026-05-06 02:12 | 41.88498 | -91.69773 | 864 ft | 15 kts | 181° |
| 2026-05-06 02:12 | 41.88402 | -91.69776 | 863 ft | 12 kts | 181° |
| 2026-05-06 02:12 | 41.88335 | -91.69776 | 864 ft | 12 kts | 180° |
| 2026-05-06 02:12 | 41.88210 | -91.69779 | 863 ft | 23 kts | 180° |
| 2026-05-06 02:13 | 41.88065 | -91.69781 | 862 ft | 18 kts | 180° |
| 2026-05-06 02:13 | 41.87984 | -91.69823 | 864 ft | 8 kts | 226° |
| 2026-05-06 02:13 | 41.87963 | -91.69851 | 867 ft | 0 kts | 224° |
| 2026-05-06 02:14 | 41.87961 | -91.69854 | 868 ft | 3 kts | 224° |
| 2026-05-06 02:14 | 41.87955 | -91.69861 | 866 ft | 0 kts | 224° |
| 2026-05-06 02:14 | 41.87936 | -91.69888 | 867 ft | 9 kts | 227° |
| 2026-05-06 02:14 | 41.87900 | -91.69938 | 863 ft | 3 kts | 240° |
| 2026-05-06 02:15 | 41.87901 | -91.69945 | 859 ft | 0 kts | 315° |
| 2026-05-06 02:15 | 41.87918 | -91.69967 | 860 ft | 20 kts | 316° |
| 2026-05-06 02:15 | 41.88176 | -91.70302 | 870 ft | 81 kts | 317° |
| 2026-05-06 02:15 | 41.88656 | -91.70913 | 1121 ft | 102 kts | 322° |
| 2026-05-06 02:16 | 41.89173 | -91.71594 | 1604 ft | 106 kts | 319° |
| 2026-05-06 02:16 | 41.89690 | -91.72332 | 2131 ft | 111 kts | 317° |
| 2026-05-06 02:16 | 41.90250 | -91.73162 | 2529 ft | 131 kts | 315° |
| 2026-05-06 02:16 | 41.90907 | -91.74187 | 2741 ft | 155 kts | 319° |
| 2026-05-06 02:17 | 41.91710 | -91.75157 | 3358 ft | 155 kts | 319° |
| 2026-05-06 02:17 | 41.92507 | -91.76140 | 3980 ft | 156 kts | 320° |
| 2026-05-06 02:17 | 41.93329 | -91.77114 | 4614 ft | 158 kts | 319° |
| 2026-05-06 02:17 | 41.94140 | -91.78131 | 5201 ft | 161 kts | 316° |
| 2026-05-06 02:18 | 41.94945 | -91.79188 | 5760 ft | 163 kts | 314° |
| 2026-05-06 02:18 | 41.95741 | -91.80280 | 6367 ft | 165 kts | 313° |
| 2026-05-06 02:18 | 41.96563 | -91.81365 | 6942 ft | 166 kts | 314° |
| 2026-05-06 02:18 | 41.97391 | -91.82448 | 7558 ft | 166 kts | 313° |
| 2026-05-06 02:19 | 41.98213 | -91.83534 | 8196 ft | 166 kts | 313° |
| 2026-05-06 02:19 | 41.99030 | -91.84609 | 8811 ft | 167 kts | 312° |
| 2026-05-06 02:19 | 41.99867 | -91.85698 | 9413 ft | 168 kts | 311° |
| 2026-05-06 02:19 | 42.00705 | -91.86799 | 10004 ft | 168 kts | 310° |
| 2026-05-06 02:20 | 42.02386 | -91.88997 | 11060 ft | 169 kts | 309° |
| 2026-05-06 02:20 | 42.03225 | -91.90098 | 11571 ft | 168 kts | 308° |
| 2026-05-06 02:20 | 42.04065 | -91.91197 | 12079 ft | 168 kts | 308° |
| 2026-05-06 02:21 | 42.04908 | -91.92299 | 12582 ft | 168 kts | 307° |
| 2026-05-06 02:21 | 42.05747 | -91.93399 | 13077 ft | 168 kts | 307° |
| 2026-05-06 02:21 | 42.06572 | -91.94490 | 13556 ft | 168 kts | 306° |
| 2026-05-06 02:21 | 42.07408 | -91.95592 | 13981 ft | 169 kts | 306° |
| 2026-05-06 02:22 | 42.08257 | -91.96701 | 14360 ft | 171 kts | 306° |
| 2026-05-06 02:22 | 42.09113 | -91.97819 | 14742 ft | 172 kts | 306° |
| 2026-05-06 02:22 | 42.09976 | -91.98952 | 15132 ft | 174 kts | 306° |
| 2026-05-06 02:22 | 42.10846 | -92.00098 | 15512 ft | 176 kts | 305° |
| 2026-05-06 02:23 | 42.11725 | -92.01256 | 15890 ft | 177 kts | 305° |
| 2026-05-06 02:23 | 42.12608 | -92.02424 | 16261 ft | 179 kts | 305° |
| 2026-05-06 02:23 | 42.13506 | -92.03603 | 16632 ft | 181 kts | 305° |
| 2026-05-06 02:23 | 42.14407 | -92.04794 | 17000 ft | 182 kts | 305° |
| 2026-05-06 02:24 | 42.15320 | -92.05999 | 17362 ft | 184 kts | 305° |
| 2026-05-06 02:24 | 42.16243 | -92.07210 | 17723 ft | 186 kts | 305° |
| 2026-05-06 02:24 | 42.17160 | -92.08421 | 18080 ft | 187 kts | 304° |
| 2026-05-06 02:24 | 42.18094 | -92.09659 | 18440 ft | 188 kts | 305° |
| 2026-05-06 02:25 | 42.19022 | -92.10870 | 18859 ft | 185 kts | 304° |
| 2026-05-06 02:25 | 42.19944 | -92.12090 | 19167 ft | 186 kts | 304° |
| 2026-05-06 02:25 | 42.20872 | -92.13316 | 19491 ft | 187 kts | 304° |
| 2026-05-06 02:25 | 42.21806 | -92.14545 | 19808 ft | 188 kts | 303° |
| 2026-05-06 02:26 | 42.22742 | -92.15786 | 20115 ft | 189 kts | 303° |
| 2026-05-06 02:26 | 42.23683 | -92.17031 | 20427 ft | 190 kts | 303° |
| 2026-05-06 02:26 | 42.24628 | -92.18280 | 20732 ft | 191 kts | 302° |
| 2026-05-06 02:26 | 42.25574 | -92.19536 | 21049 ft | 191 kts | 302° |
| 2026-05-06 02:27 | 42.26518 | -92.20787 | 21389 ft | 190 kts | 302° |
| 2026-05-06 02:27 | 42.27459 | -92.22035 | 21728 ft | 189 kts | 301° |
| 2026-05-06 02:27 | 42.28384 | -92.23261 | 22059 ft | 189 kts | 301° |
| 2026-05-06 02:27 | 42.29317 | -92.24499 | 22396 ft | 188 kts | 300° |
| 2026-05-06 02:28 | 42.30248 | -92.25737 | 22733 ft | 187 kts | 300° |
| 2026-05-06 02:28 | 42.31176 | -92.26970 | 23067 ft | 187 kts | 300° |
| 2026-05-06 02:28 | 42.32103 | -92.28198 | 23395 ft | 186 kts | 299° |
| 2026-05-06 02:28 | 42.33024 | -92.29422 | 23699 ft | 185 kts | 299° |
| 2026-05-06 02:29 | 42.33945 | -92.30646 | 23987 ft | 185 kts | 299° |
| 2026-05-06 02:29 | 42.34859 | -92.31866 | 24273 ft | 184 kts | 298° |
| 2026-05-06 02:29 | 42.35770 | -92.33080 | 24563 ft | 183 kts | 298° |
| 2026-05-06 02:29 | 42.36661 | -92.34273 | 24854 ft | 182 kts | 298° |
| 2026-05-06 02:30 | 42.37573 | -92.35493 | 25162 ft | 182 kts | 298° |
| 2026-05-06 02:30 | 42.38459 | -92.36675 | 25499 ft | 181 kts | 298° |
| 2026-05-06 02:30 | 42.39352 | -92.37866 | 25798 ft | 180 kts | 298° |
| 2026-05-06 02:30 | 42.40255 | -92.39067 | 26090 ft | 179 kts | 298° |
| 2026-05-06 02:31 | 42.41130 | -92.40235 | 26394 ft | 179 kts | 298° |
| 2026-05-06 02:31 | 42.42014 | -92.41416 | 26692 ft | 178 kts | 298° |
| 2026-05-06 02:31 | 42.42893 | -92.42592 | 26992 ft | 178 kts | 298° |
| 2026-05-06 02:31 | 42.43772 | -92.43761 | 27292 ft | 177 kts | 298° |
| 2026-05-06 02:32 | 42.44648 | -92.44931 | 27584 ft | 176 kts | 298° |
| 2026-05-06 02:32 | 42.45519 | -92.46100 | 27872 ft | 176 kts | 298° |
| 2026-05-06 02:32 | 42.46389 | -92.47260 | 28162 ft | 175 kts | 298° |
| 2026-05-06 02:32 | 42.47252 | -92.48412 | 28444 ft | 175 kts | 299° |
| 2026-05-06 02:33 | 42.48122 | -92.49565 | 28719 ft | 174 kts | 298° |
| 2026-05-06 02:33 | 42.48686 | -92.50335 | 28908 ft | 174 kts | 298° |
| 2026-05-06 02:33 | 42.50687 | -92.53031 | 29558 ft | 173 kts | 298° |
| 2026-05-06 02:34 | 42.51543 | -92.54174 | 29834 ft | 173 kts | 298° |
| 2026-05-06 02:34 | 42.52400 | -92.55334 | 29951 ft | 179 kts | 298° |
| 2026-05-06 02:34 | 42.53307 | -92.56562 | 29961 ft | 189 kts | 300° |
| 2026-05-06 02:34 | 42.54266 | -92.57846 | 29963 ft | 198 kts | 300° |
| 2026-05-06 02:35 | 42.55263 | -92.59178 | 29957 ft | 205 kts | 300° |
| 2026-05-06 02:35 | 42.56290 | -92.60561 | 29960 ft | 211 kts | 301° |
| 2026-05-06 02:35 | 42.57348 | -92.61983 | 29961 ft | 217 kts | 301° |
| 2026-05-06 02:35 | 42.58432 | -92.63447 | 29987 ft | 223 kts | 302° |
| 2026-05-06 02:36 | 42.59551 | -92.64951 | 29962 ft | 230 kts | 302° |
| 2026-05-06 02:36 | 42.60699 | -92.66498 | 29959 ft | 235 kts | 302° |
| 2026-05-06 02:36 | 42.61859 | -92.68060 | 29957 ft | 241 kts | 303° |
| 2026-05-06 02:36 | 42.63055 | -92.69672 | 29956 ft | 244 kts | 303° |
| 2026-05-06 02:37 | 42.64270 | -92.71311 | 29959 ft | 248 kts | 303° |
| 2026-05-06 02:37 | 42.65502 | -92.72964 | 29959 ft | 250 kts | 303° |
| 2026-05-06 02:37 | 42.66742 | -92.74640 | 29956 ft | 253 kts | 303° |
| 2026-05-06 02:37 | 42.67991 | -92.76335 | 29958 ft | 255 kts | 303° |
| 2026-05-06 02:38 | 42.69253 | -92.78042 | 29960 ft | 257 kts | 303° |
| 2026-05-06 02:38 | 42.70524 | -92.79763 | 29955 ft | 259 kts | 303° |
| 2026-05-06 02:38 | 42.71804 | -92.81495 | 29962 ft | 260 kts | 303° |
| 2026-05-06 02:38 | 42.73087 | -92.83233 | 29965 ft | 260 kts | 303° |
| 2026-05-06 02:39 | 42.74365 | -92.84964 | 29962 ft | 259 kts | 303° |
| 2026-05-06 02:39 | 42.75635 | -92.86690 | 29962 ft | 258 kts | 303° |
| 2026-05-06 02:39 | 42.76901 | -92.88409 | 29957 ft | 256 kts | 303° |
| 2026-05-06 02:39 | 42.78160 | -92.90122 | 29960 ft | 256 kts | 303° |
| 2026-05-06 02:40 | 42.79419 | -92.91830 | 29960 ft | 256 kts | 303° |
| 2026-05-06 02:40 | 42.80681 | -92.93552 | 29961 ft | 258 kts | 303° |
| 2026-05-06 02:40 | 42.81951 | -92.95283 | 29963 ft | 259 kts | 303° |
| 2026-05-06 02:40 | 42.83227 | -92.97021 | 29965 ft | 260 kts | 303° |
| 2026-05-06 02:41 | 42.84507 | -92.98764 | 29969 ft | 261 kts | 303° |
| 2026-05-06 02:41 | 42.85789 | -93.00510 | 29967 ft | 260 kts | 303° |
| 2026-05-06 02:41 | 42.87064 | -93.02249 | 29970 ft | 259 kts | 303° |
| 2026-05-06 02:41 | 42.88337 | -93.03989 | 29969 ft | 258 kts | 303° |
| 2026-05-06 02:42 | 42.89584 | -93.05694 | 29964 ft | 257 kts | 303° |
| 2026-05-06 02:42 | 42.90847 | -93.07419 | 29959 ft | 256 kts | 303° |
| 2026-05-06 02:42 | 42.92103 | -93.09140 | 29959 ft | 255 kts | 303° |
| 2026-05-06 02:42 | 42.93388 | -93.10812 | 29957 ft | 257 kts | 305° |
| 2026-05-06 02:43 | 42.94675 | -93.12502 | 29962 ft | 256 kts | 303° |
| 2026-05-06 02:43 | 42.95917 | -93.14254 | 29965 ft | 257 kts | 302° |
| 2026-05-06 02:43 | 42.97175 | -93.16005 | 29967 ft | 259 kts | 303° |
| 2026-05-06 02:43 | 42.98455 | -93.17751 | 29965 ft | 260 kts | 302° |
| 2026-05-06 02:44 | 42.99724 | -93.19484 | 29967 ft | 256 kts | 302° |
| 2026-05-06 02:44 | 43.00966 | -93.21199 | 29962 ft | 253 kts | 301° |
| 2026-05-06 02:44 | 43.02204 | -93.22924 | 29960 ft | 255 kts | 301° |
| 2026-05-06 02:44 | 43.03458 | -93.24653 | 29963 ft | 257 kts | 302° |
| 2026-05-06 02:45 | 43.04727 | -93.26385 | 29965 ft | 259 kts | 302° |
| 2026-05-06 02:45 | 43.05999 | -93.28128 | 29969 ft | 259 kts | 302° |
| 2026-05-06 02:45 | 43.07260 | -93.29870 | 29969 ft | 257 kts | 302° |
| 2026-05-06 02:45 | 43.08514 | -93.31604 | 29968 ft | 256 kts | 302° |
| 2026-05-06 02:46 | 43.09771 | -93.33321 | 29963 ft | 257 kts | 303° |
| 2026-05-06 02:46 | 43.11071 | -93.34955 | 29962 ft | 257 kts | 304° |
| 2026-05-06 02:46 | 43.12384 | -93.36623 | 29962 ft | 258 kts | 303° |
| 2026-05-06 02:46 | 43.13696 | -93.38299 | 29962 ft | 258 kts | 303° |
| 2026-05-06 02:47 | 43.15015 | -93.39974 | 29966 ft | 259 kts | 304° |
| 2026-05-06 02:47 | 43.16337 | -93.41650 | 29967 ft | 259 kts | 304° |
| 2026-05-06 02:47 | 43.17658 | -93.43335 | 29968 ft | 259 kts | 304° |
| 2026-05-06 02:47 | 43.18982 | -93.45021 | 29970 ft | 259 kts | 303° |
| 2026-05-06 02:48 | 43.20295 | -93.46682 | 29964 ft | 256 kts | 303° |
| 2026-05-06 02:48 | 43.21592 | -93.48335 | 29987 ft | 254 kts | 303° |
| 2026-05-06 02:48 | 43.22885 | -93.49993 | 29987 ft | 255 kts | 303° |
| 2026-05-06 02:48 | 43.24189 | -93.51662 | 29988 ft | 257 kts | 303° |
| 2026-05-06 02:49 | 43.25501 | -93.53335 | 29989 ft | 258 kts | 303° |
| 2026-05-06 02:49 | 43.26818 | -93.55017 | 29990 ft | 259 kts | 303° |
| 2026-05-06 02:49 | 43.28137 | -93.56704 | 29992 ft | 259 kts | 303° |
| 2026-05-06 02:49 | 43.29450 | -93.58383 | 29991 ft | 257 kts | 303° |
| 2026-05-06 02:50 | 43.30740 | -93.60036 | 29994 ft | 256 kts | 303° |
| 2026-05-06 02:50 | 43.32045 | -93.61707 | 29992 ft | 255 kts | 303° |
| 2026-05-06 02:50 | 43.33341 | -93.63368 | 29992 ft | 255 kts | 303° |
| 2026-05-06 02:50 | 43.34635 | -93.65028 | 29990 ft | 254 kts | 303° |
| 2026-05-06 02:51 | 43.35928 | -93.66687 | 29989 ft | 254 kts | 303° |
| 2026-05-06 02:51 | 43.37223 | -93.68352 | 30025 ft | 255 kts | 302° |
| 2026-05-06 02:51 | 43.38521 | -93.70018 | 29994 ft | 253 kts | 302° |
| 2026-05-06 02:51 | 43.39799 | -93.71650 | 29989 ft | 248 kts | 302° |
| 2026-05-06 02:52 | 43.41056 | -93.73275 | 29986 ft | 248 kts | 301° |
| 2026-05-06 02:52 | 43.42304 | -93.74895 | 29987 ft | 251 kts | 302° |
| 2026-05-06 02:52 | 43.43583 | -93.76542 | 29982 ft | 253 kts | 302° |
| 2026-05-06 02:52 | 43.44872 | -93.78200 | 29983 ft | 254 kts | 302° |
| 2026-05-06 02:53 | 43.46157 | -93.79853 | 29984 ft | 252 kts | 302° |
| 2026-05-06 02:53 | 43.47436 | -93.81503 | 29991 ft | 251 kts | 302° |
| 2026-05-06 02:53 | 43.48283 | -93.82597 | 29990 ft | 251 kts | 301° |
| 2026-05-06 02:53 | 43.49551 | -93.84238 | 29990 ft | 250 kts | 301° |
| 2026-05-06 02:54 | 43.50816 | -93.85874 | 29989 ft | 249 kts | 301° |
| 2026-05-06 02:54 | 43.52077 | -93.87503 | 29989 ft | 248 kts | 301° |
| 2026-05-06 02:54 | 43.53338 | -93.89134 | 29987 ft | 248 kts | 301° |
| 2026-05-06 02:54 | 43.54596 | -93.90764 | 29987 ft | 249 kts | 301° |
| 2026-05-06 02:55 | 43.55859 | -93.92405 | 29987 ft | 250 kts | 301° |
| 2026-05-06 02:55 | 43.57131 | -93.94050 | 29993 ft | 251 kts | 301° |
| 2026-05-06 02:55 | 43.58392 | -93.95676 | 29990 ft | 245 kts | 301° |
| 2026-05-06 02:55 | 43.59626 | -93.97278 | 29998 ft | 243 kts | 301° |
| 2026-05-06 02:56 | 43.60858 | -93.98891 | 29994 ft | 245 kts | 301° |
| 2026-05-06 02:56 | 43.62104 | -94.00515 | 29998 ft | 247 kts | 301° |
| 2026-05-06 02:56 | 43.63365 | -94.02151 | 30000 ft | 249 kts | 301° |
| 2026-05-06 02:56 | 43.64626 | -94.03786 | 30001 ft | 248 kts | 301° |
| 2026-05-06 02:57 | 43.65877 | -94.05414 | 29997 ft | 246 kts | 301° |
| 2026-05-06 02:57 | 43.67120 | -94.07036 | 29998 ft | 245 kts | 301° |
| 2026-05-06 02:57 | 43.68342 | -94.08629 | 29999 ft | 244 kts | 301° |
| 2026-05-06 02:57 | 43.69577 | -94.10242 | 29994 ft | 244 kts | 301° |
| 2026-05-06 02:58 | 43.70811 | -94.11855 | 30000 ft | 245 kts | 301° |
| 2026-05-06 02:58 | 43.72054 | -94.13477 | 29999 ft | 246 kts | 301° |
| 2026-05-06 02:58 | 43.73303 | -94.15109 | 30002 ft | 247 kts | 301° |
| 2026-05-06 02:58 | 43.74557 | -94.16748 | 30004 ft | 248 kts | 301° |
| 2026-05-06 02:59 | 43.75813 | -94.18388 | 30024 ft | 249 kts | 301° |
| 2026-05-06 02:59 | 43.77063 | -94.20015 | 30001 ft | 243 kts | 301° |
| 2026-05-06 02:59 | 43.78278 | -94.21601 | 29995 ft | 239 kts | 300° |
| 2026-05-06 02:59 | 43.79482 | -94.23195 | 29992 ft | 241 kts | 300° |
| 2026-05-06 03:00 | 43.80701 | -94.24802 | 29991 ft | 243 kts | 300° |
| 2026-05-06 03:00 | 43.81936 | -94.26417 | 29994 ft | 245 kts | 300° |
| 2026-05-06 03:00 | 43.83176 | -94.28040 | 30000 ft | 245 kts | 301° |
| 2026-05-06 03:00 | 43.84395 | -94.29640 | 30001 ft | 243 kts | 300° |
| 2026-05-06 03:01 | 43.85617 | -94.31254 | 30013 ft | 242 kts | 300° |
| 2026-05-06 03:01 | 43.86833 | -94.32859 | 30011 ft | 241 kts | 300° |
| 2026-05-06 03:01 | 43.88049 | -94.34455 | 30009 ft | 240 kts | 300° |
| 2026-05-06 03:01 | 43.89263 | -94.36051 | 30008 ft | 241 kts | 300° |
| 2026-05-06 03:02 | 43.90485 | -94.37658 | 30012 ft | 242 kts | 300° |
| 2026-05-06 03:02 | 43.91708 | -94.39272 | 30012 ft | 243 kts | 300° |
| 2026-05-06 03:02 | 43.92940 | -94.40898 | 30013 ft | 245 kts | 300° |
| 2026-05-06 03:02 | 43.94176 | -94.42525 | 30014 ft | 245 kts | 300° |
| 2026-05-06 03:03 | 43.95411 | -94.44150 | 30012 ft | 243 kts | 300° |
| 2026-05-06 03:03 | 43.96619 | -94.45736 | 30009 ft | 236 kts | 300° |
| 2026-05-06 03:03 | 43.97804 | -94.47314 | 30004 ft | 237 kts | 299° |
| 2026-05-06 03:03 | 43.99000 | -94.48906 | 30005 ft | 239 kts | 300° |
| 2026-05-06 03:04 | 44.00212 | -94.50509 | 30006 ft | 241 kts | 300° |
| 2026-05-06 03:04 | 44.01432 | -94.52123 | 30005 ft | 242 kts | 300° |
| 2026-05-06 03:04 | 44.02652 | -94.53736 | 30012 ft | 241 kts | 300° |
| 2026-05-06 03:04 | 44.03846 | -94.55318 | 30011 ft | 240 kts | 300° |
| 2026-05-06 03:05 | 44.05049 | -94.56917 | 30005 ft | 239 kts | 300° |
| 2026-05-06 03:05 | 44.06248 | -94.58511 | 30010 ft | 239 kts | 299° |
| 2026-05-06 03:05 | 44.07450 | -94.60112 | 30011 ft | 240 kts | 299° |
| 2026-05-06 03:05 | 44.08659 | -94.61721 | 30012 ft | 241 kts | 300° |
| 2026-05-06 03:06 | 44.09873 | -94.63335 | 30019 ft | 242 kts | 300° |
| 2026-05-06 03:06 | 44.11095 | -94.64956 | 30016 ft | 243 kts | 300° |
| 2026-05-06 03:06 | 44.12310 | -94.66573 | 30019 ft | 243 kts | 300° |
| 2026-05-06 03:06 | 44.13529 | -94.68193 | 30028 ft | 241 kts | 299° |
| 2026-05-06 03:07 | 44.14730 | -94.69790 | 30020 ft | 236 kts | 299° |
| 2026-05-06 03:07 | 44.15907 | -94.71359 | 30014 ft | 234 kts | 298° |
| 2026-05-06 03:07 | 44.17086 | -94.72945 | 30017 ft | 237 kts | 298° |
| 2026-05-06 03:07 | 44.18279 | -94.74539 | 30019 ft | 239 kts | 299° |
| 2026-05-06 03:08 | 44.19481 | -94.76144 | 30020 ft | 240 kts | 299° |
| 2026-05-06 03:08 | 44.20687 | -94.77754 | 30022 ft | 240 kts | 299° |
| 2026-05-06 03:08 | 44.21872 | -94.79336 | 30021 ft | 238 kts | 299° |
| 2026-05-06 03:08 | 44.23064 | -94.80932 | 30019 ft | 237 kts | 298° |
| 2026-05-06 03:09 | 44.24249 | -94.82520 | 30022 ft | 235 kts | 298° |
| 2026-05-06 03:09 | 44.25426 | -94.84101 | 30022 ft | 235 kts | 298° |
| 2026-05-06 03:09 | 44.26608 | -94.85688 | 30021 ft | 236 kts | 298° |
| 2026-05-06 03:09 | 44.27795 | -94.87282 | 30023 ft | 237 kts | 299° |
| 2026-05-06 03:10 | 44.28988 | -94.88881 | 30023 ft | 238 kts | 298° |
| 2026-05-06 03:10 | 44.30184 | -94.90488 | 30027 ft | 239 kts | 299° |
| 2026-05-06 03:10 | 44.31385 | -94.92103 | 30029 ft | 240 kts | 299° |
| 2026-05-06 03:10 | 44.32587 | -94.93713 | 30028 ft | 237 kts | 298° |
| 2026-05-06 03:11 | 44.33760 | -94.95280 | 30026 ft | 231 kts | 298° |
| 2026-05-06 03:11 | 44.34910 | -94.96837 | 30026 ft | 230 kts | 297° |
| 2026-05-06 03:11 | 44.36062 | -94.98401 | 30021 ft | 232 kts | 298° |
| 2026-05-06 03:11 | 44.37231 | -94.99977 | 30026 ft | 234 kts | 298° |
| 2026-05-06 03:12 | 44.38404 | -95.01559 | 30028 ft | 235 kts | 298° |
| 2026-05-06 03:12 | 44.39571 | -95.03131 | 30032 ft | 236 kts | 298° |
| 2026-05-06 03:12 | 44.40747 | -95.04716 | 30032 ft | 234 kts | 298° |
| 2026-05-06 03:12 | 44.41913 | -95.06296 | 30031 ft | 233 kts | 298° |
| 2026-05-06 03:13 | 44.43032 | -95.07807 | 30034 ft | 232 kts | 298° |
| 2026-05-06 03:13 | 44.44219 | -95.09413 | 30033 ft | 230 kts | 297° |
| 2026-05-06 03:13 | 44.45370 | -95.10967 | 30031 ft | 230 kts | 298° |
| 2026-05-06 03:13 | 44.46626 | -95.12427 | 30031 ft | 239 kts | 303° |
| 2026-05-06 03:14 | 44.48039 | -95.13734 | 30025 ft | 248 kts | 309° |
| 2026-05-06 03:14 | 44.49594 | -95.14876 | 30027 ft | 253 kts | 312° |
| 2026-05-06 03:14 | 44.51160 | -95.15998 | 30031 ft | 253 kts | 311° |
| 2026-05-06 03:14 | 44.52720 | -95.17129 | 30033 ft | 252 kts | 311° |
| 2026-05-06 03:15 | 44.54276 | -95.18257 | 30033 ft | 251 kts | 311° |
| 2026-05-06 03:15 | 44.55830 | -95.19375 | 30032 ft | 250 kts | 311° |
| 2026-05-06 03:15 | 44.57377 | -95.20493 | 30031 ft | 249 kts | 311° |
| 2026-05-06 03:15 | 44.58919 | -95.21608 | 30031 ft | 249 kts | 311° |
| 2026-05-06 03:16 | 44.60456 | -95.22720 | 30033 ft | 248 kts | 311° |
| 2026-05-06 03:16 | 44.61991 | -95.23832 | 30033 ft | 248 kts | 311° |
| 2026-05-06 03:16 | 44.63513 | -95.24941 | 30032 ft | 251 kts | 311° |
| 2026-05-06 03:16 | 44.65072 | -95.26073 | 30036 ft | 254 kts | 311° |
| 2026-05-06 03:17 | 44.66647 | -95.27215 | 30032 ft | 256 kts | 311° |
| 2026-05-06 03:17 | 44.68236 | -95.28366 | 30034 ft | 258 kts | 312° |
| 2026-05-06 03:17 | 44.69831 | -95.29524 | 30051 ft | 258 kts | 312° |
| 2026-05-06 03:17 | 44.71426 | -95.30679 | 30052 ft | 257 kts | 311° |
| 2026-05-06 03:18 | 44.73004 | -95.31828 | 30053 ft | 255 kts | 311° |
| 2026-05-06 03:18 | 44.74576 | -95.32972 | 30052 ft | 254 kts | 311° |
| 2026-05-06 03:18 | 44.76145 | -95.34111 | 30043 ft | 254 kts | 311° |
| 2026-05-06 03:18 | 44.77723 | -95.35266 | 30042 ft | 257 kts | 311° |
| 2026-05-06 03:19 | 44.79314 | -95.36426 | 30050 ft | 259 kts | 312° |
| 2026-05-06 03:19 | 44.80919 | -95.37591 | 30050 ft | 260 kts | 312° |
| 2026-05-06 03:19 | 44.82521 | -95.38753 | 30052 ft | 258 kts | 312° |
| 2026-05-06 03:19 | 44.84111 | -95.39916 | 30050 ft | 257 kts | 311° |
| 2026-05-06 03:20 | 44.87272 | -95.42230 | 30072 ft | 256 kts | 312° |
| 2026-05-06 03:20 | 44.88853 | -95.43391 | 30053 ft | 257 kts | 312° |
| 2026-05-06 03:20 | 44.90441 | -95.44551 | 30053 ft | 257 kts | 312° |
| 2026-05-06 03:21 | 44.92030 | -95.45716 | 30053 ft | 258 kts | 312° |
| 2026-05-06 03:21 | 44.93622 | -95.46882 | 30051 ft | 258 kts | 312° |
| 2026-05-06 03:21 | 44.95215 | -95.48052 | 30050 ft | 258 kts | 312° |
| 2026-05-06 03:21 | 44.96808 | -95.49218 | 30049 ft | 258 kts | 312° |
| 2026-05-06 03:22 | 44.98400 | -95.50387 | 30046 ft | 258 kts | 312° |
| 2026-05-06 03:22 | 44.99995 | -95.51559 | 30049 ft | 258 kts | 312° |
| 2026-05-06 03:22 | 45.01591 | -95.52732 | 30039 ft | 259 kts | 312° |
| 2026-05-06 03:22 | 45.03165 | -95.53889 | 30039 ft | 259 kts | 312° |
| 2026-05-06 03:23 | 45.04762 | -95.55065 | 30042 ft | 259 kts | 312° |
| 2026-05-06 03:23 | 45.06359 | -95.56242 | 30049 ft | 261 kts | 315° |
| 2026-05-06 03:23 | 45.07978 | -95.57442 | 30040 ft | 264 kts | 315° |
| 2026-05-06 03:23 | 45.09617 | -95.58647 | 30047 ft | 266 kts | 316° |
| 2026-05-06 03:24 | 45.11263 | -95.59862 | 30039 ft | 268 kts | 316° |
| 2026-05-06 03:24 | 45.12917 | -95.61083 | 30041 ft | 268 kts | 316° |
| 2026-05-06 03:24 | 45.14568 | -95.62298 | 30045 ft | 266 kts | 316° |
| 2026-05-06 03:24 | 45.16207 | -95.63512 | 30042 ft | 265 kts | 315° |
| 2026-05-06 03:25 | 45.17839 | -95.64721 | 30040 ft | 264 kts | 315° |
| 2026-05-06 03:25 | 45.19466 | -95.65926 | 30039 ft | 263 kts | 315° |
| 2026-05-06 03:25 | 45.21087 | -95.67128 | 30038 ft | 264 kts | 315° |
| 2026-05-06 03:25 | 45.22721 | -95.68342 | 30039 ft | 265 kts | 315° |
| 2026-05-06 03:26 | 45.24358 | -95.69555 | 30090 ft | 266 kts | 320° |
| 2026-05-06 03:26 | 45.26013 | -95.70787 | 30041 ft | 270 kts | 319° |
| 2026-05-06 03:26 | 45.27664 | -95.72010 | 30043 ft | 272 kts | 320° |
| 2026-05-06 03:26 | 45.29347 | -95.73260 | 30046 ft | 274 kts | 320° |
| 2026-05-06 03:27 | 45.31037 | -95.74517 | 30045 ft | 275 kts | 320° |
| 2026-05-06 03:27 | 45.32727 | -95.75772 | 30042 ft | 274 kts | 320° |
| 2026-05-06 03:27 | 45.34408 | -95.77024 | 30041 ft | 272 kts | 320° |
| 2026-05-06 03:27 | 45.36084 | -95.78276 | 30041 ft | 271 kts | 319° |
| 2026-05-06 03:28 | 45.37752 | -95.79520 | 30042 ft | 270 kts | 319° |
| 2026-05-06 03:28 | 45.39415 | -95.80762 | 30041 ft | 270 kts | 319° |
| 2026-05-06 03:28 | 45.41082 | -95.82009 | 30041 ft | 271 kts | 319° |
| 2026-05-06 03:28 | 45.42757 | -95.83264 | 30045 ft | 273 kts | 321° |
| 2026-05-06 03:29 | 45.44450 | -95.84530 | 30028 ft | 276 kts | 322° |
| 2026-05-06 03:29 | 45.46154 | -95.85804 | 30028 ft | 277 kts | 322° |
| 2026-05-06 03:29 | 45.47863 | -95.87082 | 30027 ft | 278 kts | 322° |
| 2026-05-06 03:29 | 45.49575 | -95.88364 | 30027 ft | 278 kts | 322° |
| 2026-05-06 03:30 | 45.51282 | -95.89642 | 30022 ft | 277 kts | 322° |
| 2026-05-06 03:30 | 45.52982 | -95.90919 | 30020 ft | 276 kts | 322° |
| 2026-05-06 03:30 | 45.54681 | -95.92195 | 30019 ft | 275 kts | 322° |
| 2026-05-06 03:30 | 45.56374 | -95.93465 | 30020 ft | 275 kts | 322° |
| 2026-05-06 03:31 | 45.58061 | -95.94734 | 30023 ft | 274 kts | 322° |
| 2026-05-06 03:31 | 45.59747 | -95.96003 | 30022 ft | 274 kts | 322° |
| 2026-05-06 03:31 | 45.61408 | -95.97257 | 30021 ft | 274 kts | 322° |
| 2026-05-06 03:31 | 45.63099 | -95.98535 | 30022 ft | 277 kts | 323° |
| 2026-05-06 03:32 | 45.64809 | -95.99824 | 30021 ft | 279 kts | 323° |
| 2026-05-06 03:32 | 45.66532 | -96.01123 | 30025 ft | 280 kts | 323° |
| 2026-05-06 03:32 | 45.68263 | -96.02430 | 30029 ft | 282 kts | 323° |
| 2026-05-06 03:32 | 45.69991 | -96.03735 | 30032 ft | 280 kts | 323° |
| 2026-05-06 03:33 | 45.71713 | -96.05035 | 30046 ft | 279 kts | 323° |
| 2026-05-06 03:33 | 45.73424 | -96.06330 | 30046 ft | 278 kts | 323° |
| 2026-05-06 03:33 | 45.75131 | -96.07623 | 30046 ft | 277 kts | 323° |
| 2026-05-06 03:33 | 45.76831 | -96.08912 | 30045 ft | 277 kts | 323° |
| 2026-05-06 03:34 | 45.78541 | -96.10209 | 30045 ft | 279 kts | 323° |
| 2026-05-06 03:34 | 45.80258 | -96.11512 | 30047 ft | 280 kts | 323° |
| 2026-05-06 03:34 | 45.81981 | -96.12821 | 30053 ft | 282 kts | 323° |
| 2026-05-06 03:34 | 45.83717 | -96.14138 | 30056 ft | 283 kts | 323° |
| 2026-05-06 03:35 | 45.85444 | -96.15451 | 30058 ft | 282 kts | 323° |
| 2026-05-06 03:35 | 45.87179 | -96.16770 | 30057 ft | 281 kts | 323° |
| 2026-05-06 03:35 | 45.88903 | -96.18086 | 30057 ft | 280 kts | 323° |
| 2026-05-06 03:35 | 45.90624 | -96.19397 | 30056 ft | 280 kts | 323° |
| 2026-05-06 03:36 | 45.92316 | -96.20688 | 30061 ft | 279 kts | 323° |
| 2026-05-06 03:36 | 45.94028 | -96.21995 | 30059 ft | 278 kts | 323° |
| 2026-05-06 03:36 | 45.95740 | -96.23303 | 30059 ft | 279 kts | 323° |
| 2026-05-06 03:36 | 45.97455 | -96.24617 | 30059 ft | 280 kts | 323° |
| 2026-05-06 03:37 | 45.99180 | -96.25933 | 30056 ft | 281 kts | 323° |
| 2026-05-06 03:37 | 46.00911 | -96.27257 | 30047 ft | 283 kts | 324° |
| 2026-05-06 03:37 | 46.02646 | -96.28587 | 30049 ft | 282 kts | 324° |
| 2026-05-06 03:37 | 46.04378 | -96.29911 | 30048 ft | 281 kts | 324° |
| 2026-05-06 03:38 | 46.06102 | -96.31234 | 30047 ft | 281 kts | 324° |
| 2026-05-06 03:38 | 46.07824 | -96.32556 | 30046 ft | 280 kts | 324° |
| 2026-05-06 03:38 | 46.09542 | -96.33874 | 30045 ft | 280 kts | 324° |
| 2026-05-06 03:38 | 46.11259 | -96.35195 | 30045 ft | 279 kts | 324° |
| 2026-05-06 03:39 | 46.12971 | -96.36512 | 30044 ft | 279 kts | 324° |
| 2026-05-06 03:39 | 46.14678 | -96.37827 | 30043 ft | 279 kts | 324° |
| 2026-05-06 03:39 | 46.16390 | -96.39147 | 30043 ft | 279 kts | 324° |
| 2026-05-06 03:39 | 46.18105 | -96.40469 | 30044 ft | 280 kts | 324° |
| 2026-05-06 03:40 | 46.19817 | -96.41789 | 30042 ft | 281 kts | 324° |
| 2026-05-06 03:40 | 46.21545 | -96.43124 | 30046 ft | 282 kts | 324° |
| 2026-05-06 03:40 | 46.23276 | -96.44461 | 30048 ft | 282 kts | 324° |
| 2026-05-06 03:40 | 46.24986 | -96.45784 | 30048 ft | 283 kts | 324° |
| 2026-05-06 03:41 | 46.26722 | -96.47124 | 30049 ft | 283 kts | 325° |
| 2026-05-06 03:41 | 46.28461 | -96.48470 | 30050 ft | 283 kts | 324° |
| 2026-05-06 03:41 | 46.30199 | -96.49817 | 30051 ft | 284 kts | 325° |
| 2026-05-06 03:41 | 46.31913 | -96.51138 | 29917 ft | 270 kts | 324° |
| 2026-05-06 03:42 | 46.33567 | -96.52419 | 28783 ft | 272 kts | 324° |
| 2026-05-06 03:42 | 46.34675 | -96.53291 | 28024 ft | 275 kts | 325° |
| 2026-05-06 03:42 | 46.36366 | -96.54608 | 26933 ft | 276 kts | 326° |
| 2026-05-06 03:42 | 46.38067 | -96.55925 | 25817 ft | 278 kts | 326° |
| 2026-05-06 03:43 | 46.39771 | -96.57251 | 24697 ft | 280 kts | 327° |
| 2026-05-06 03:43 | 46.41494 | -96.58596 | 23546 ft | 281 kts | 327° |
| 2026-05-06 03:43 | 46.43222 | -96.59942 | 22128 ft | 282 kts | 327° |
| 2026-05-06 03:43 | 46.44955 | -96.61290 | 20693 ft | 283 kts | 328° |
| 2026-05-06 03:44 | 46.46692 | -96.62641 | 19234 ft | 284 kts | 328° |
| 2026-05-06 03:44 | 46.48432 | -96.64000 | 17618 ft | 284 kts | 329° |
| 2026-05-06 03:44 | 46.50181 | -96.65368 | 15917 ft | 288 kts | 329° |
| 2026-05-06 03:44 | 46.51822 | -96.66642 | 15945 ft | 256 kts | 329° |
| 2026-05-06 03:45 | 46.53408 | -96.67887 | 16071 ft | 261 kts | 329° |
| 2026-05-06 03:45 | 46.55014 | -96.69149 | 16097 ft | 264 kts | 329° |
| 2026-05-06 03:45 | 46.56648 | -96.70431 | 16102 ft | 270 kts | 329° |
| 2026-05-06 03:45 | 46.58317 | -96.71738 | 16106 ft | 274 kts | 329° |
| 2026-05-06 03:46 | 46.60007 | -96.73063 | 16115 ft | 278 kts | 329° |
| 2026-05-06 03:46 | 46.61714 | -96.74404 | 16113 ft | 280 kts | 329° |
| 2026-05-06 03:46 | 46.63434 | -96.75754 | 16113 ft | 282 kts | 329° |
| 2026-05-06 03:46 | 46.65164 | -96.77113 | 16121 ft | 283 kts | 329° |
| 2026-05-06 03:47 | 46.66899 | -96.78477 | 16115 ft | 284 kts | 329° |
| 2026-05-06 03:47 | 46.68638 | -96.79847 | 16121 ft | 285 kts | 329° |
| 2026-05-06 03:47 | 46.70382 | -96.81220 | 16116 ft | 285 kts | 329° |
| 2026-05-06 03:47 | 46.72125 | -96.82597 | 16120 ft | 285 kts | 329° |
| 2026-05-06 03:48 | 46.73871 | -96.83974 | 16115 ft | 285 kts | 329° |
| 2026-05-06 03:48 | 46.75618 | -96.85354 | 16122 ft | 285 kts | 329° |
| 2026-05-06 03:48 | 46.77223 | -96.87023 | 16111 ft | 283 kts | 318° |
| 2026-05-06 03:48 | 46.78662 | -96.88984 | 16113 ft | 283 kts | 315° |
| 2026-05-06 03:49 | 46.80095 | -96.90954 | 16099 ft | 282 kts | 321° |
| 2026-05-06 03:49 | 46.81917 | -96.92004 | 16097 ft | 286 kts | 347° |
| 2026-05-06 03:49 | 46.83876 | -96.92383 | 16101 ft | 288 kts | 351° |
| 2026-05-06 03:49 | 46.85859 | -96.92749 | 16101 ft | 288 kts | 348° |
| 2026-05-06 03:50 | 46.87826 | -96.93297 | 16102 ft | 287 kts | 345° |
| 2026-05-06 03:50 | 46.89785 | -96.93886 | 16102 ft | 288 kts | 346° |
| 2026-05-06 03:50 | 46.91756 | -96.94415 | 16103 ft | 288 kts | 347° |
| 2026-05-06 03:50 | 46.93732 | -96.94931 | 16102 ft | 288 kts | 347° |
| 2026-05-06 03:51 | 46.95704 | -96.95467 | 16102 ft | 288 kts | 347° |
| 2026-05-06 03:51 | 46.97674 | -96.96004 | 16109 ft | 288 kts | 347° |
| 2026-05-06 03:51 | 46.99648 | -96.96540 | 16109 ft | 288 kts | 347° |
| 2026-05-06 03:51 | 47.01619 | -96.97071 | 16110 ft | 288 kts | 347° |
| 2026-05-06 03:52 | 47.03588 | -96.97606 | 16112 ft | 288 kts | 347° |
| 2026-05-06 03:52 | 47.05556 | -96.98142 | 16113 ft | 288 kts | 347° |
| 2026-05-06 03:52 | 47.07526 | -96.98677 | 16114 ft | 288 kts | 347° |
| 2026-05-06 03:52 | 47.09496 | -96.99214 | 16114 ft | 288 kts | 347° |
| 2026-05-06 03:53 | 47.11469 | -96.99752 | 16120 ft | 288 kts | 347° |
| 2026-05-06 03:53 | 47.13436 | -97.00287 | 16120 ft | 288 kts | 347° |
| 2026-05-06 03:53 | 47.15419 | -97.00830 | 15928 ft | 292 kts | 347° |
| 2026-05-06 03:53 | 47.17400 | -97.01369 | 15572 ft | 286 kts | 347° |
| 2026-05-06 03:54 | 47.19339 | -97.01896 | 15189 ft | 281 kts | 347° |
| 2026-05-06 03:54 | 47.21264 | -97.02424 | 14817 ft | 281 kts | 347° |
| 2026-05-06 03:54 | 47.23184 | -97.02950 | 14448 ft | 280 kts | 347° |
| 2026-05-06 03:54 | 47.25075 | -97.03465 | 14074 ft | 279 kts | 347° |
| 2026-05-06 03:55 | 47.26978 | -97.03987 | 13696 ft | 276 kts | 347° |
| 2026-05-06 03:55 | 47.28856 | -97.04503 | 13321 ft | 274 kts | 347° |
| 2026-05-06 03:55 | 47.30720 | -97.05015 | 12960 ft | 271 kts | 347° |
| 2026-05-06 03:55 | 47.32575 | -97.05524 | 12603 ft | 271 kts | 348° |
| 2026-05-06 03:56 | 47.34434 | -97.06034 | 12243 ft | 271 kts | 347° |
| 2026-05-06 03:56 | 47.36293 | -97.06546 | 11885 ft | 271 kts | 348° |
| 2026-05-06 03:56 | 47.38138 | -97.07053 | 11530 ft | 268 kts | 348° |
| 2026-05-06 03:56 | 47.39959 | -97.07555 | 11179 ft | 265 kts | 348° |
| 2026-05-06 03:57 | 47.41777 | -97.08055 | 10821 ft | 266 kts | 348° |
| 2026-05-06 03:57 | 47.43597 | -97.08558 | 10470 ft | 266 kts | 348° |
| 2026-05-06 03:57 | 47.45413 | -97.09059 | 10121 ft | 264 kts | 348° |
| 2026-05-06 03:57 | 47.47217 | -97.09555 | 9754 ft | 262 kts | 348° |
| 2026-05-06 03:58 | 47.49002 | -97.10048 | 9393 ft | 259 kts | 348° |
| 2026-05-06 03:58 | 47.50769 | -97.10536 | 9059 ft | 258 kts | 348° |
| 2026-05-06 03:58 | 47.52529 | -97.11024 | 8721 ft | 257 kts | 348° |
| 2026-05-06 03:58 | 47.54287 | -97.11512 | 8381 ft | 257 kts | 347° |
| 2026-05-06 03:59 | 47.56036 | -97.11997 | 8037 ft | 254 kts | 347° |
| 2026-05-06 03:59 | 47.57740 | -97.12470 | 7708 ft | 251 kts | 347° |
| 2026-05-06 03:59 | 47.59453 | -97.12945 | 7378 ft | 249 kts | 348° |
| 2026-05-06 03:59 | 47.61149 | -97.13412 | 7051 ft | 247 kts | 348° |
| 2026-05-06 04:00 | 47.62831 | -97.13881 | 6728 ft | 245 kts | 348° |
| 2026-05-06 04:00 | 47.64508 | -97.14347 | 6401 ft | 245 kts | 348° |
| 2026-05-06 04:00 | 47.66181 | -97.14812 | 6065 ft | 244 kts | 348° |
| 2026-05-06 04:00 | 47.67849 | -97.15276 | 5740 ft | 244 kts | 348° |
| 2026-05-06 04:01 | 47.69514 | -97.15740 | 5416 ft | 243 kts | 348° |
| 2026-05-06 04:01 | 47.71173 | -97.16203 | 5095 ft | 241 kts | 348° |
| 2026-05-06 04:01 | 47.72769 | -97.16648 | 4783 ft | 216 kts | 348° |
| 2026-05-06 04:01 | 47.74128 | -97.17023 | 4526 ft | 184 kts | 348° |
| 2026-05-06 04:02 | 47.75306 | -97.17355 | 4304 ft | 163 kts | 348° |
| 2026-05-06 04:02 | 47.76377 | -97.17654 | 4099 ft | 150 kts | 348° |
| 2026-05-06 04:02 | 47.77375 | -97.17934 | 3906 ft | 141 kts | 348° |
| 2026-05-06 04:02 | 47.78321 | -97.18144 | 3741 ft | 134 kts | 357° |
| 2026-05-06 04:03 | 47.79211 | -97.18113 | 3656 ft | 125 kts | 357° |
| 2026-05-06 04:03 | 47.80102 | -97.18132 | 3502 ft | 130 kts | 0° |
| 2026-05-06 04:03 | 47.80937 | -97.18118 | 3356 ft | 106 kts | 358° |
| 2026-05-06 04:03 | 47.81615 | -97.18125 | 3220 ft | 90 kts | 359° |
| 2026-05-06 04:04 | 47.82214 | -97.18128 | 3096 ft | 83 kts | 359° |
| 2026-05-06 04:04 | 47.82781 | -97.18124 | 3006 ft | 82 kts | 360° |
| 2026-05-06 04:04 | 47.83357 | -97.18129 | 2909 ft | 84 kts | 359° |
| 2026-05-06 04:04 | 47.83945 | -97.18124 | 2806 ft | 84 kts | 359° |
| 2026-05-06 04:05 | 47.84520 | -97.18137 | 2690 ft | 81 kts | 359° |
| 2026-05-06 04:05 | 47.85078 | -97.18131 | 2580 ft | 80 kts | 359° |
| 2026-05-06 04:05 | 47.85645 | -97.18127 | 2485 ft | 84 kts | 359° |
| 2026-05-06 04:05 | 47.86221 | -97.18136 | 2373 ft | 82 kts | 359° |
| 2026-05-06 04:06 | 47.86780 | -97.18131 | 2264 ft | 80 kts | 359° |
| 2026-05-06 04:06 | 47.87342 | -97.18125 | 2163 ft | 81 kts | 360° |
| 2026-05-06 04:06 | 47.87906 | -97.18136 | 2062 ft | 82 kts | 359° |
| 2026-05-06 04:06 | 47.88479 | -97.18127 | 1948 ft | 82 kts | 359° |
| 2026-05-06 04:07 | 47.89038 | -97.18130 | 1830 ft | 80 kts | 1° |
| 2026-05-06 04:07 | 47.89604 | -97.18138 | 1711 ft | 82 kts | 359° |
| 2026-05-06 04:07 | 47.90188 | -97.18131 | 1596 ft | 86 kts | 360° |
| 2026-05-06 04:07 | 47.90776 | -97.18129 | 1471 ft | 85 kts | 1° |
| 2026-05-06 04:08 | 47.91369 | -97.18130 | 1361 ft | 86 kts | 359° |
| 2026-05-06 04:08 | 47.91973 | -97.18130 | 1263 ft | 87 kts | 0° |
| 2026-05-06 04:08 | 47.92580 | -97.18132 | 1140 ft | 88 kts | 359° |
| 2026-05-06 04:08 | 47.93192 | -97.18127 | 1023 ft | 88 kts | 0° |
| 2026-05-06 04:09 | 47.93796 | -97.18127 | 918 ft | 85 kts | 359° |
| 2026-05-06 04:09 | 47.94364 | -97.18126 | 847 ft | 72 kts | 0° |
| 2026-05-06 04:09 | 47.94772 | -97.18127 | 842 ft | 26 kts | 0° |
| 2026-05-06 04:09 | 47.94826 | -97.18082 | 842 ft | 7 kts | 91° |
| 2026-05-06 04:10 | 47.94825 | -97.17984 | 844 ft | 12 kts | 89° |
| 2026-05-06 04:10 | 47.94825 | -97.17874 | 844 ft | 9 kts | 90° |
| 2026-05-06 04:10 | 47.94830 | -97.17809 | 839 ft | 4 kts | 36° |
| 2026-05-06 04:10 | 47.94851 | -97.17790 | 840 ft | 3 kts | 74° |
| 2026-05-06 04:11 | 47.94851 | -97.17775 | 842 ft | 2 kts | 93° |